createdAt,value
2023-05-01T00:04:13.525Z,11.04
2023-05-01T00:09:13.279Z,10.97
2023-05-01T00:14:13.215Z,10.85
2023-05-01T00:19:13.180Z,10.82
2023-05-01T00:24:13.120Z,10.79
2023-05-01T00:29:13.140Z,10.76
2023-05-01T00:34:13.110Z,10.64
2023-05-01T00:39:12.999Z,10.51
2023-05-01T00:44:12.905Z,10.47
2023-05-01T00:49:12.815Z,10.41
2023-05-01T00:54:12.767Z,10.32
2023-05-01T00:59:12.727Z,10.25
2023-05-01T01:04:13.730Z,10.08
2023-05-01T01:09:12.725Z,10.02
2023-05-01T01:14:12.666Z,9.99
2023-05-01T01:19:12.581Z,10.01
2023-05-01T01:24:12.553Z,9.94
2023-05-01T01:29:12.448Z,9.94
2023-05-01T01:34:12.332Z,9.99
2023-05-01T01:39:12.299Z,10.08
2023-05-01T01:44:12.362Z,10.14
2023-05-01T01:49:12.314Z,10.18
2023-05-01T01:54:12.237Z,10.32
2023-05-01T01:59:13.074Z,10.48
2023-05-01T02:04:12.213Z,10.74
2023-05-01T02:09:11.946Z,10.86
2023-05-01T02:14:11.913Z,11.07
2023-05-01T02:19:11.828Z,11.19
2023-05-01T02:24:11.808Z,11.29
2023-05-01T02:29:11.753Z,11.49
2023-05-01T02:34:11.785Z,11.39
2023-05-01T02:39:11.738Z,11.47
2023-05-01T02:44:11.671Z,11.57
2023-05-01T02:49:11.525Z,11.49
2023-05-01T02:54:11.447Z,11.64
2023-05-01T02:59:11.429Z,11.76
2023-05-01T03:04:11.470Z,11.72
2023-05-01T03:09:11.324Z,12.10
2023-05-01T03:14:11.384Z,12.17
2023-05-01T03:19:12.253Z,12.20
2023-05-01T03:24:11.267Z,12.21
2023-05-01T03:29:11.170Z,12.20
2023-05-01T03:34:19.937Z,12.71
2023-05-01T03:39:10.980Z,12.34
2023-05-01T03:44:10.919Z,12.14
2023-05-01T03:49:10.863Z,12.16
2023-05-01T03:54:10.905Z,12.20
2023-05-01T03:59:10.852Z,11.95
2023-05-01T04:04:10.981Z,12.14
2023-05-01T04:09:10.684Z,12.23
2023-05-01T04:14:10.588Z,12.13
2023-05-01T04:19:10.548Z,12.29
2023-05-01T04:24:10.482Z,12.45
2023-05-01T04:29:10.557Z,12.23
2023-05-01T04:34:10.460Z,12.46
2023-05-01T04:39:10.325Z,12.72
2023-05-01T04:44:10.222Z,12.62
2023-05-01T04:49:10.269Z,12.31
2023-05-01T04:54:10.126Z,12.45
2023-05-01T04:59:10.083Z,12.41
2023-05-01T05:04:10.102Z,12.42
2023-05-01T05:09:10.014Z,12.75
2023-05-01T05:14:10.047Z,13.07
2023-05-01T05:19:09.938Z,12.90
2023-05-01T05:24:09.947Z,13.22
2023-05-01T05:29:09.762Z,13.17
2023-05-01T05:34:09.714Z,13.41
2023-05-01T05:39:09.631Z,13.60
2023-05-01T05:44:09.648Z,13.66
2023-05-01T05:49:09.587Z,13.92
2023-05-01T05:54:09.492Z,14.17
2023-05-01T05:59:09.448Z,14.47
2023-05-01T06:04:09.467Z,14.75
2023-05-01T06:09:09.307Z,15.06
2023-05-01T06:14:09.232Z,15.21
2023-05-01T06:19:09.198Z,15.39
2023-05-01T06:24:09.182Z,15.65
2023-05-01T06:29:09.133Z,15.78
2023-05-01T06:34:09.089Z,16.02
2023-05-01T06:39:09.021Z,16.23
2023-05-01T06:44:09.028Z,16.43
2023-05-01T06:49:08.998Z,16.48
2023-05-01T06:54:08.810Z,16.64
2023-05-01T06:59:08.772Z,17.04
2023-05-01T07:04:08.688Z,17.04
2023-05-01T07:09:08.646Z,17.33
2023-05-01T07:14:08.630Z,17.28
2023-05-01T07:19:08.539Z,17.66
2023-05-01T07:24:08.486Z,17.86
2023-05-01T07:29:11.814Z,18.03
2023-05-01T07:34:15.182Z,18.11
2023-05-01T07:39:08.435Z,18.23
2023-05-01T07:44:08.359Z,17.78
2023-05-01T07:49:08.245Z,18.48
2023-05-01T07:54:08.131Z,18.85
2023-05-01T07:59:08.080Z,19.07
2023-05-01T08:04:08.130Z,19.32
2023-05-01T08:09:07.968Z,19.02
2023-05-01T08:14:07.903Z,18.65
2023-05-01T08:19:07.949Z,18.72
2023-05-01T08:24:07.888Z,18.75
2023-05-01T08:29:08.865Z,18.92
2023-05-01T08:34:07.760Z,19.86
2023-05-01T08:39:07.714Z,20.62
2023-05-01T08:44:07.635Z,20.94
2023-05-01T08:49:07.527Z,21.84
2023-05-01T08:54:07.473Z,22.18
2023-05-01T08:59:07.450Z,22.77
2023-05-01T09:04:07.427Z,22.91
2023-05-01T09:09:07.322Z,22.90
2023-05-01T09:14:07.317Z,23.17
2023-05-01T09:19:07.255Z,22.91
2023-05-01T09:24:07.302Z,22.68
2023-05-01T09:29:07.112Z,22.76
2023-05-01T09:34:15.924Z,23.23
2023-05-01T09:40:24.917Z,22.40
2023-05-01T09:45:17.464Z,21.67
2023-05-01T09:50:17.317Z,22.36
2023-05-01T09:55:17.394Z,23.10
2023-05-01T10:00:18.278Z,22.90
2023-05-01T10:05:17.118Z,23.54
2023-05-01T10:10:17.073Z,23.78
2023-05-01T10:15:25.595Z,24.39
2023-05-01T10:20:18.013Z,24.49
2023-05-01T10:25:17.084Z,24.52
2023-05-01T10:30:17.075Z,24.81
2023-05-01T10:35:16.855Z,24.77
2023-05-01T10:40:16.816Z,25.38
2023-05-01T10:45:16.710Z,25.43
2023-05-01T10:50:16.696Z,24.42
2023-05-01T10:55:16.573Z,24.46
2023-05-01T11:00:16.603Z,24.60
2023-05-01T11:05:19.981Z,24.88
2023-05-01T11:10:17.490Z,24.80
2023-05-01T11:15:16.421Z,24.78
2023-05-01T11:20:16.328Z,24.47
2023-05-01T11:25:16.388Z,24.03
2023-05-01T11:30:16.347Z,24.99
2023-05-01T11:35:16.321Z,25.80
2023-05-01T11:40:16.103Z,26.45
2023-05-01T11:45:16.100Z,26.60
2023-05-01T11:50:16.357Z,26.02
2023-05-01T11:55:15.999Z,25.25
2023-05-01T12:00:15.933Z,25.52
2023-05-01T12:05:15.932Z,24.39
2023-05-01T12:10:15.966Z,24.32
2023-05-01T12:15:15.913Z,24.52
2023-05-01T12:20:15.745Z,24.60
2023-05-01T12:25:15.709Z,24.39
2023-05-01T12:30:15.610Z,24.40
2023-05-01T12:35:15.614Z,24.32
2023-05-01T12:40:15.599Z,24.05
2023-05-01T12:45:15.611Z,23.60
2023-05-01T12:50:15.467Z,23.10
2023-05-01T12:55:15.368Z,22.95
2023-05-01T13:00:15.345Z,22.85
2023-05-01T13:05:15.252Z,22.98
2023-05-01T13:10:15.267Z,23.15
2023-05-01T13:15:15.117Z,22.80
2023-05-01T13:20:15.074Z,23.13
2023-05-01T13:25:15.050Z,23.28
2023-05-01T13:30:14.966Z,23.57
2023-05-01T13:35:15.033Z,24.24
2023-05-01T13:40:18.367Z,24.18
2023-05-01T13:45:14.915Z,24.34
2023-05-01T13:50:14.840Z,24.30
2023-05-01T13:55:14.835Z,24.43
2023-05-01T14:00:14.686Z,24.03
2023-05-01T14:05:14.643Z,24.24
2023-05-01T14:10:14.555Z,24.49
2023-05-01T14:15:14.485Z,24.55
2023-05-01T14:20:14.428Z,23.68
2023-05-01T14:25:14.342Z,23.65
2023-05-01T14:30:14.316Z,22.83
2023-05-01T14:35:14.252Z,22.92
2023-05-01T14:40:14.197Z,22.95
2023-05-01T14:45:14.254Z,22.88
2023-05-01T14:50:14.091Z,22.73
2023-05-01T14:55:14.033Z,22.27
2023-05-01T15:00:14.998Z,22.20
2023-05-01T15:05:13.912Z,22.15
2023-05-01T15:10:13.994Z,22.20
2023-05-01T15:15:14.942Z,22.21
2023-05-01T15:20:13.857Z,21.46
2023-05-01T15:25:13.732Z,20.88
2023-05-01T15:30:13.712Z,20.58
2023-05-01T15:35:13.651Z,20.43
2023-05-01T15:40:13.625Z,20.29
2023-05-01T15:45:23.550Z,20.36
2023-05-01T15:50:13.560Z,19.51
2023-05-01T15:55:13.440Z,19.23
2023-05-01T16:00:13.379Z,19.65
2023-05-01T16:05:13.344Z,19.76
2023-05-01T16:10:13.222Z,19.88
2023-05-01T16:15:13.204Z,19.18
2023-05-01T16:20:13.170Z,19.43
2023-05-01T16:25:13.115Z,19.11
2023-05-01T16:30:13.014Z,18.90
2023-05-01T16:35:12.927Z,18.90
2023-05-01T16:40:12.896Z,18.78
2023-05-01T16:45:12.855Z,18.76
2023-05-01T16:50:12.815Z,18.82
2023-05-01T16:55:12.730Z,18.82
2023-05-01T17:00:12.769Z,19.06
2023-05-01T17:05:12.718Z,18.84
2023-05-01T17:10:12.639Z,19.04
2023-05-01T17:15:12.562Z,18.92
2023-05-01T17:20:12.510Z,18.62
2023-05-01T17:25:12.430Z,18.69
2023-05-01T17:30:12.378Z,18.69
2023-05-01T17:35:12.294Z,18.80
2023-05-01T17:40:12.252Z,18.45
2023-05-01T17:45:12.162Z,18.41
2023-05-01T17:50:12.165Z,18.63
2023-05-01T17:55:12.077Z,18.70
2023-05-01T18:00:12.018Z,18.75
2023-05-01T18:05:11.961Z,18.52
2023-05-01T18:10:11.930Z,18.36
2023-05-01T18:15:13.754Z,18.47
2023-05-01T18:20:11.809Z,18.39
2023-05-01T18:25:11.884Z,18.18
2023-05-01T18:30:11.774Z,18.07
2023-05-01T18:35:11.699Z,18.02
2023-05-01T18:40:11.693Z,17.59
2023-05-01T18:45:11.502Z,17.72
2023-05-01T18:50:11.533Z,17.52
2023-05-01T18:55:11.558Z,17.21
2023-05-01T19:00:11.398Z,17.00
2023-05-01T19:05:11.356Z,17.15
2023-05-01T19:10:11.286Z,17.11
2023-05-01T19:15:11.199Z,16.91
2023-05-01T19:20:11.126Z,16.76
2023-05-01T19:25:11.063Z,16.61
2023-05-01T19:30:11.039Z,16.28
2023-05-01T19:35:11.051Z,16.33
2023-05-01T19:40:10.956Z,16.02
2023-05-01T19:45:10.868Z,16.00
2023-05-01T19:50:10.825Z,15.74
2023-05-01T19:55:10.877Z,15.97
2023-05-01T20:00:11.702Z,15.94
2023-05-01T20:05:10.751Z,15.74
2023-05-01T20:10:10.643Z,15.78
2023-05-01T20:15:10.498Z,15.80
2023-05-01T20:20:10.483Z,15.68
2023-05-01T20:25:10.408Z,15.57
2023-05-01T20:30:10.385Z,15.59
2023-05-01T20:35:10.301Z,15.53
2023-05-01T20:40:10.365Z,15.43
2023-05-01T20:45:10.193Z,15.46
2023-05-01T20:50:10.137Z,15.32
2023-05-01T20:55:10.436Z,15.11
2023-05-01T21:00:10.124Z,15.31
2023-05-01T21:05:10.059Z,15.23
2023-05-01T21:10:10.056Z,15.14
2023-05-01T21:15:09.950Z,14.81
2023-05-01T21:20:09.840Z,14.80
2023-05-01T21:25:09.945Z,14.96
2023-05-01T21:30:09.703Z,14.89
2023-05-01T21:35:09.799Z,14.84
2023-05-01T21:40:09.762Z,14.64
2023-05-01T21:45:09.522Z,14.45
2023-05-01T21:50:19.341Z,14.75
2023-05-01T21:55:09.400Z,14.55
2023-05-01T22:00:09.542Z,14.51
2023-05-01T22:05:09.478Z,14.36
2023-05-01T22:10:09.391Z,14.50
2023-05-01T22:15:09.329Z,14.47
2023-05-01T22:20:09.207Z,14.46
2023-05-01T22:25:09.064Z,14.46
2023-05-01T22:30:09.019Z,14.57
2023-05-01T22:35:09.053Z,14.45
2023-05-01T22:40:08.899Z,14.46
2023-05-01T22:45:08.886Z,14.35
2023-05-01T22:50:08.824Z,14.22
2023-05-01T22:55:08.865Z,14.17
2023-05-01T23:00:08.814Z,14.15
2023-05-01T23:05:08.733Z,14.03
2023-05-01T23:10:08.668Z,14.12
2023-05-01T23:15:08.526Z,14.15
2023-05-01T23:20:08.562Z,14.14
2023-05-01T23:25:08.441Z,14.17
2023-05-01T23:30:08.343Z,14.22
2023-05-01T23:35:08.273Z,14.24
2023-05-01T23:40:08.271Z,14.21
2023-05-01T23:45:08.241Z,14.24
2023-05-01T23:50:08.164Z,14.24
2023-05-01T23:55:08.119Z,14.04
